Time;durP1;ratioP1;P1;durP2;ratioP2;P2;SDS_P1;SDS_P2;PMS_P1;PMS_P2;Temp;Humidity;BMP_temperature;BMP_pressure;BME280_temperature;BME280_humidity;BME280_pressure;Samples;Min_cycle;Max_cycle;Signal;HPM_P1;HPM_P2
2022/11/19 00:00:19;;;;;;;28.65;26.52;;;;;;;12.61;62.67;100605.03;5037168;28;20390;-72
2022/11/19 00:02:44;;;;;;;27.45;25.45;;;;;;;12.61;62.48;100607.75;5035058;28;20119;-72
2022/11/19 00:05:09;;;;;;;28.00;26.10;;;;;;;12.61;62.65;100613.16;5046199;28;20139;-72
2022/11/19 00:07:35;;;;;;;28.05;25.92;;;;;;;12.60;62.67;100608.84;5048749;28;20057;-72
2022/11/19 00:10:01;;;;;;;28.17;26.00;;;;;;;12.60;62.65;100618.84;5051987;28;20036;-71
2022/11/19 00:15:10;;;;;;;27.48;25.38;;;;;;;12.58;62.67;100621.81;5053282;28;20535;-71
2022/11/19 00:17:35;;;;;;;27.55;25.70;;;;;;;12.56;62.54;100622.06;5052392;28;20041;-73
2022/11/19 00:20:00;;;;;;;26.88;25.00;;;;;;;12.55;62.88;100628.56;5044510;28;20039;-71
2022/11/19 00:22:26;;;;;;;26.92;24.92;;;;;;;12.55;62.52;100628.56;5052583;28;20425;-71
2022/11/19 00:24:51;;;;;;;26.70;24.77;;;;;;;12.55;62.46;100627.75;5042114;28;20469;-71
2022/11/19 00:27:16;;;;;;;29.77;27.55;;;;;;;12.55;62.75;100630.47;5049013;28;20056;-71
2022/11/19 00:29:42;;;;;;;27.50;25.45;;;;;;;12.55;62.88;100638.59;5045053;28;20033;-71
2022/11/19 00:32:07;;;;;;;29.00;26.88;;;;;;;12.55;62.44;100638.59;5035574;28;20090;-71
2022/11/19 00:34:32;;;;;;;26.30;24.58;;;;;;;12.54;62.39;100640.47;5046487;28;20116;-71
2022/11/19 00:36:58;;;;;;;27.70;25.60;;;;;;;12.54;62.60;100637.75;5051914;28;20064;-70
2022/11/19 00:39:23;;;;;;;27.85;25.67;;;;;;;12.54;62.66;100637.75;5038275;28;20060;-70
2022/11/19 00:41:48;;;;;;;29.45;27.10;;;;;;;12.53;62.75;100636.13;5048146;28;20037;-71
2022/11/19 00:44:14;;;;;;;26.85;25.05;;;;;;;12.53;62.50;100643.47;5042833;28;20496;-70
2022/11/19 00:46:39;;;;;;;26.77;24.88;;;;;;;12.52;62.52;100656.19;5045378;28;20417;-70
2022/11/19 00:49:04;;;;;;;27.25;25.35;;;;;;;12.51;62.53;100649.13;5035403;28;20445;-70
2022/11/19 00:51:30;;;;;;;27.75;25.80;;;;;;;12.50;62.82;100654.81;5034919;28;20112;-70
2022/11/19 00:53:56;;;;;;;30.00;27.70;;;;;;;12.50;62.66;100646.69;5035147;28;20487;-70
2022/11/19 00:56:24;;;;;;;28.88;26.02;;;;;;;12.49;62.60;100656.69;5036833;28;20030;-70
2022/11/19 00:58:50;;;;;;;27.95;25.85;;;;;;;12.48;62.43;100648.84;5035172;28;20211;-70
2022/11/19 01:01:17;;;;;;;30.75;28.35;;;;;;;12.47;62.65;100645.31;5046104;28;20040;-70
2022/11/19 01:03:47;;;;;;;27.95;25.67;;;;;;;12.47;62.63;100650.72;5034780;28;20397;-70
2022/11/19 01:06:14;;;;;;;29.80;27.25;;;;;;;12.46;62.47;100659.09;5035704;28;20334;-74
2022/11/19 01:08:39;;;;;;;28.65;26.48;;;;;;;12.45;62.39;100660.19;5034670;28;20033;-70
2022/11/19 01:11:14;;;;;;;28.35;25.92;;;;;;;12.44;62.61;100669.38;5034935;28;20041;-70
2022/11/19 01:13:40;;;;;;;28.58;26.52;;;;;;;12.43;62.65;100671.28;5034809;28;20025;-70
2022/11/19 01:16:09;;;;;;;29.27;26.88;;;;;;;12.42;62.13;100674.22;5045605;28;20350;-70
2022/11/19 01:18:36;;;;;;;27.98;25.88;;;;;;;12.41;62.25;100684.25;5053981;28;20121;-70
2022/11/19 01:21:03;;;;;;;28.20;25.75;;;;;;;12.41;62.58;100686.16;5053369;28;20040;-70
2022/11/19 01:23:28;;;;;;;29.50;27.08;;;;;;;12.41;62.42;100680.72;5053169;28;20056;-70
2022/11/19 01:25:54;;;;;;;28.42;26.20;;;;;;;12.40;62.50;100685.34;5052491;28;20454;-70
2022/11/19 01:28:19;;;;;;;30.55;27.83;;;;;;;12.39;62.07;100683.69;5042728;28;20095;-70
2022/11/19 01:30:45;;;;;;;29.30;26.73;;;;;;;12.38;62.31;100689.38;5032898;28;20061;-70
2022/11/19 01:33:11;;;;;;;30.05;27.65;;;;;;;12.37;62.30;100691.25;5034566;28;20034;-71
2022/11/19 01:35:36;;;;;;;28.90;26.63;;;;;;;12.37;62.29;100693.94;5034125;28;20033;-72
2022/11/19 01:38:03;;;;;;;30.58;28.17;;;;;;;12.36;62.47;100703.16;5047840;28;20057;-71
2022/11/19 01:40:29;;;;;;;28.90;26.55;;;;;;;12.34;62.11;100703.41;5042990;28;20128;-71
2022/11/19 01:42:55;;;;;;;29.42;26.88;;;;;;;12.33;62.26;100698.25;5034312;28;20041;-70
2022/11/19 01:45:32;;;;;;;27.98;25.90;;;;;;;12.32;62.13;100707.44;5033431;28;20037;-68
2022/11/19 01:48:03;;;;;;;27.85;25.55;;;;;;;12.30;62.30;100704.19;5048146;28;20040;-70
2022/11/19 01:50:32;;;;;;;28.83;26.45;;;;;;;12.30;62.00;100704.19;5040427;28;20045;-69
2022/11/19 01:52:58;;;;;;;27.85;25.27;;;;;;;12.30;62.02;100715.03;5034040;28;20108;-70
2022/11/19 01:55:25;;;;;;;29.10;26.85;;;;;;;12.28;62.16;100709.03;5045435;28;20033;-70
2022/11/19 01:57:55;;;;;;;27.17;25.25;;;;;;;12.27;61.82;100710.09;5042134;28;20064;-70
2022/11/19 02:00:21;;;;;;;26.73;24.50;;;;;;;12.26;62.13;100713.88;5036514;28;20077;-73
2022/11/19 02:02:47;;;;;;;26.88;24.67;;;;;;;12.24;62.33;100714.13;5033831;28;20037;-70
2022/11/19 02:05:12;;;;;;;27.88;25.58;;;;;;;12.24;62.01;100716.84;5041952;28;20036;-70
2022/11/19 02:07:41;;;;;;;29.17;26.77;;;;;;;12.22;61.88;100716.31;5039657;28;20366;-70
2022/11/19 02:10:07;;;;;;;28.85;26.13;;;;;;;12.21;62.15;100714.66;5035936;28;20033;-70
2022/11/19 02:12:35;;;;;;;28.73;26.60;;;;;;;12.20;61.93;100712.22;5047917;28;20079;-70
2022/11/19 02:15:17;;;;;;;28.02;25.83;;;;;;;12.18;62.12;100717.88;5052587;28;20032;-71
2022/11/19 02:18:05;;;;;;;26.95;25.10;;;;;;;12.17;61.84;100723.53;5052317;28;20025;-71
2022/11/19 02:20:47;;;;;;;29.10;26.90;;;;;;;12.16;61.91;100716.50;5051714;28;20358;-70
2022/11/19 02:23:43;;;;;;;25.83;23.98;;;;;;;12.13;61.84;100723.22;5052747;28;20056;-71
2022/11/19 02:26:36;;;;;;;25.77;23.95;;;;;;;12.12;62.19;100729.72;5053003;28;20036;-70
2022/11/19 02:29:10;;;;;;;27.35;24.98;;;;;;;12.10;61.98;100729.97;5051820;28;20029;-70
2022/11/19 02:31:46;;;;;;;27.73;25.63;;;;;;;12.09;61.83;100727.50;5050857;28;20362;-71
2022/11/19 02:34:15;;;;;;;26.85;24.67;;;;;;;12.08;61.86;100725.88;5033403;28;20112;-71
2022/11/19 02:37:06;;;;;;;27.88;25.75;;;;;;;12.07;62.00;100729.63;5046281;28;20025;-71
2022/11/19 02:39:40;;;;;;;27.48;25.20;;;;;;;12.05;62.04;100729.09;5040914;28;20416;-71
2022/11/19 02:42:20;;;;;;;26.45;24.65;;;;;;;12.03;61.58;100729.34;5047170;28;20068;-71
2022/11/19 02:45:05;;;;;;;25.60;23.70;;;;;;;12.02;61.76;100733.13;5047955;28;20032;-70
2022/11/19 02:47:45;;;;;;;28.08;25.67;;;;;;;12.01;61.75;100736.06;5067069;28;20033;-71
2022/11/19 02:50:21;;;;;;;26.95;24.95;;;;;;;11.99;61.78;100739.03;5051160;28;20029;-70
2022/11/19 02:52:47;;;;;;;26.10;24.00;;;;;;;11.99;61.92;100740.91;5050259;28;20477;-70
2022/11/19 02:55:15;;;;;;;27.52;25.27;;;;;;;11.97;61.67;100740.34;5040545;28;20080;-71
2022/11/19 02:57:43;;;;;;;28.58;26.40;;;;;;;11.96;61.69;100755.78;5032187;28;20029;-71
2022/11/19 03:06:06;;;;;;;25.23;23.30;;;;;;;11.91;61.61;100753.00;5013052;28;20060;-70
2022/11/19 03:08:31;;;;;;;25.98;23.48;;;;;;;11.90;61.78;100763.03;5032390;28;20502;-71
2022/11/19 03:11:20;;;;;;;25.77;23.67;;;;;;;11.89;61.63;100764.09;5032670;28;20033;-70
2022/11/19 03:16:49;;;;;;;26.13;23.98;;;;;;;11.87;61.52;100768.13;5031986;28;20126;-70
2022/11/19 03:19:41;;;;;;;27.70;25.60;;;;;;;11.85;61.69;100762.91;5032436;28;20048;-71
2022/11/19 03:22:33;;;;;;;26.05;23.85;;;;;;;11.83;61.40;100762.34;5031978;28;20033;-70
2022/11/19 03:25:11;;;;;;;25.05;23.33;;;;;;;11.81;61.57;100766.38;5033089;28;20398;-71
2022/11/19 03:27:45;;;;;;;25.65;23.75;;;;;;;11.80;61.63;100770.16;5031858;28;20025;-70
2022/11/19 03:30:12;;;;;;;27.10;24.75;;;;;;;11.79;61.75;100772.06;5032480;28;20477;-70
2022/11/19 03:33:02;;;;;;;26.42;24.45;;;;;;;11.78;61.79;100767.69;5031995;28;20026;-71
2022/11/19 03:35:42;;;;;;;25.70;23.80;;;;;;;11.77;61.37;100774.19;5036368;28;20100;-70
2022/11/19 03:38:13;;;;;;;25.25;23.52;;;;;;;11.75;61.62;100767.38;5037363;28;20485;-70
2022/11/19 03:40:40;;;;;;;27.17;25.05;;;;;;;11.73;61.64;100775.75;5031642;28;20031;-71
2022/11/19 03:43:10;;;;;;;24.88;22.95;;;;;;;11.73;61.38;100770.34;5032561;28;20051;-71
2022/11/19 03:45:41;;;;;;;26.55;24.45;;;;;;;11.71;61.48;100772.47;5049348;28;20033;-71
2022/11/19 03:48:08;;;;;;;26.90;24.65;;;;;;;11.70;61.51;100768.94;5044746;28;20025;-72
2022/11/19 03:50:51;;;;;;;25.92;24.05;;;;;;;11.69;61.65;100774.59;5051735;28;20111;-70
2022/11/19 03:53:19;;;;;;;26.15;24.35;;;;;;;11.67;61.46;100779.47;5051174;28;20040;-71
2022/11/19 03:55:54;;;;;;;27.48;24.98;;;;;;;11.66;61.30;100780.50;5033083;28;20025;-70
2022/11/19 03:58:23;;;;;;;24.35;22.65;;;;;;;11.64;61.36;100777.22;5032504;28;20465;-71
2022/11/19 04:00:49;;;;;;;24.85;22.98;;;;;;;11.63;61.64;100783.72;5031643;28;20082;-71
2022/11/19 04:03:14;;;;;;;26.13;24.02;;;;;;;11.60;61.60;100787.75;5035163;28;20457;-71
2022/11/19 04:05:39;;;;;;;26.48;24.48;;;;;;;11.60;61.50;100784.22;5051160;28;20040;-72
2022/11/19 04:08:05;;;;;;;25.48;23.83;;;;;;;11.59;61.50;100783.41;5049176;28;20045;-71
2022/11/19 04:10:30;;;;;;;24.75;23.10;;;;;;;11.57;61.41;100796.34;5030691;28;20041;-72
2022/11/19 04:12:55;;;;;;;25.20;23.23;;;;;;;11.55;61.49;100790.38;5031734;28;20462;-72
2022/11/19 04:15:21;;;;;;;25.95;24.10;;;;;;;11.55;61.38;100797.69;5031729;28;20120;-71
2022/11/19 04:17:46;;;;;;;26.90;24.73;;;;;;;11.54;61.36;100801.44;5043640;28;20401;-71
2022/11/19 04:20:12;;;;;;;25.30;23.33;;;;;;;11.53;61.33;100807.91;5031349;28;20032;-71
2022/11/19 04:22:37;;;;;;;25.20;23.27;;;;;;;11.51;61.40;100812.75;5044635;28;20037;-71
2022/11/19 04:25:03;;;;;;;24.27;22.67;;;;;;;11.49;61.37;100804.91;5038942;28;20385;-71
2022/11/19 04:27:28;;;;;;;25.50;23.67;;;;;;;11.47;61.36;100815.94;5038763;28;20040;-70
2022/11/19 04:29:54;;;;;;;26.10;24.23;;;;;;;11.46;61.38;100818.91;5043772;28;20489;-70
2022/11/19 04:32:19;;;;;;;24.77;22.88;;;;;;;11.44;61.35;100821.03;5034917;28;20033;-70
2022/11/19 04:34:44;;;;;;;26.35;24.45;;;;;;;11.42;60.69;100818.56;5050854;28;20033;-70
2022/11/19 04:37:09;;;;;;;25.42;23.45;;;;;;;11.41;61.32;100818.81;5049858;28;20029;-70
2022/11/19 04:39:35;;;;;;;25.85;23.95;;;;;;;11.39;61.23;100826.34;5043004;28;20041;-70
2022/11/19 04:42:00;;;;;;;25.70;23.60;;;;;;;11.36;61.44;100816.84;5050502;28;20043;-70
2022/11/19 04:44:26;;;;;;;24.63;22.90;;;;;;;11.36;61.28;100826.84;5051148;28;20025;-70
2022/11/19 04:46:51;;;;;;;27.20;25.20;;;;;;;11.34;61.12;100823.56;5048888;28;20500;-71
2022/11/19 04:49:16;;;;;;;25.92;23.65;;;;;;;11.31;61.16;100830.28;5049949;28;20033;-71
2022/11/19 04:51:42;;;;;;;26.05;23.75;;;;;;;11.31;61.04;100834.88;5032122;28;20049;-71
2022/11/19 04:54:07;;;;;;;24.95;23.08;;;;;;;11.29;61.15;100837.84;5030889;28;20040;-70
2022/11/19 04:56:33;;;;;;;25.02;23.30;;;;;;;11.27;61.29;100842.66;5032871;28;20037;-70
2022/11/19 04:58:59;;;;;;;27.20;24.92;;;;;;;11.25;61.00;100842.91;5036212;28;20367;-71
2022/11/19 05:01:24;;;;;;;26.42;24.35;;;;;;;11.24;61.27;100840.47;5035021;28;20025;-72
2022/11/19 05:03:50;;;;;;;26.88;24.63;;;;;;;11.22;61.24;100846.09;5034667;28;20029;-72
2022/11/19 05:06:15;;;;;;;25.55;23.65;;;;;;;11.21;61.21;100846.34;5035066;28;20034;-71
2022/11/19 05:08:41;;;;;;;24.98;23.17;;;;;;;11.20;61.22;100847.41;5036229;28;20194;-71
2022/11/19 05:11:06;;;;;;;26.90;24.70;;;;;;;11.19;61.42;100852.00;5054176;28;20499;-71
2022/11/19 05:13:31;;;;;;;26.55;24.55;;;;;;;11.16;61.18;100844.38;5054649;28;20069;-72
2022/11/19 05:15:57;;;;;;;26.10;23.98;;;;;;;11.16;61.02;100851.66;5052172;28;20044;-72
2022/11/19 05:18:22;;;;;;;26.40;24.33;;;;;;;11.14;61.18;100848.41;5051793;28;20029;-71
2022/11/19 05:20:48;;;;;;;24.92;23.05;;;;;;;11.13;61.39;100852.97;5050200;28;20066;-72
2022/11/19 05:23:13;;;;;;;25.98;23.77;;;;;;;11.12;61.12;100855.94;5043203;28;20052;-71
2022/11/19 05:25:39;;;;;;;25.38;23.30;;;;;;;11.10;61.16;100866.16;5051954;28;20044;-72
2022/11/19 05:28:04;;;;;;;28.02;25.52;;;;;;;11.08;61.04;100862.88;5043179;28;20175;-72
2022/11/19 05:30:30;;;;;;;26.20;24.02;;;;;;;11.07;61.24;100869.34;5043588;28;20045;-72
2022/11/19 05:32:55;;;;;;;26.33;24.02;;;;;;;11.04;61.19;100870.66;5022220;28;20029;-71
2022/11/19 05:35:21;;;;;;;25.77;23.67;;;;;;;11.04;61.15;100878.78;5034197;28;20121;-72
2022/11/19 05:37:49;;;;;;;26.42;24.27;;;;;;;11.02;61.25;100878.19;5032948;28;20095;-72
2022/11/19 05:40:15;;;;;;;23.92;22.02;;;;;;;11.00;61.18;100874.91;5036347;28;20500;-71
2022/11/19 05:42:41;;;;;;;26.27;24.08;;;;;;;10.98;61.08;100877.03;5050033;28;20033;-72
2022/11/19 05:45:07;;;;;;;27.33;25.05;;;;;;;10.98;61.11;100882.44;5033941;28;20489;-72
2022/11/19 05:47:32;;;;;;;26.42;24.13;;;;;;;10.96;61.08;100881.84;5034275;28;20535;-71
2022/11/19 05:49:58;;;;;;;26.92;24.73;;;;;;;10.94;61.14;100884.81;5034653;28;20037;-72
2022/11/19 05:52:24;;;;;;;26.33;24.15;;;;;;;10.93;61.17;100879.63;5051690;28;20612;-72
2022/11/19 05:54:49;;;;;;;26.17;23.75;;;;;;;10.92;61.09;100883.41;5042419;28;20124;-72
2022/11/19 05:57:14;;;;;;;26.98;24.48;;;;;;;10.90;61.19;100888.22;5050876;28;20037;-72
2022/11/19 05:59:40;;;;;;;25.42;23.25;;;;;;;10.90;61.16;100894.44;5048863;28;20034;-71
2022/11/19 06:02:05;;;;;;;28.63;26.30;;;;;;;10.88;61.05;100901.97;5046814;28;20086;-72
2022/11/19 06:04:31;;;;;;;25.20;23.15;;;;;;;10.87;61.15;100899.53;5041810;28;20064;-71
2022/11/19 06:06:56;;;;;;;27.38;24.98;;;;;;;10.85;61.05;100901.63;5033455;28;20359;-71
2022/11/19 06:09:22;;;;;;;26.38;24.05;;;;;;;10.84;61.07;100903.53;5047499;28;20104;-71
2022/11/19 06:11:48;;;;;;;28.13;25.77;;;;;;;10.82;61.17;100911.88;5036672;28;20047;-72
2022/11/19 06:14:15;;;;;;;28.40;25.95;;;;;;;10.81;60.93;100915.63;5043100;28;20616;-71
2022/11/19 06:16:41;;;;;;;27.77;25.05;;;;;;;10.79;61.07;100912.34;5053227;28;20025;-72
2022/11/19 06:19:06;;;;;;;27.67;25.15;;;;;;;10.78;61.13;100912.56;5051308;28;20040;-72
2022/11/19 06:21:32;;;;;;;27.05;24.58;;;;;;;10.78;61.11;100917.97;5046745;28;20454;-72
2022/11/19 06:23:57;;;;;;;26.95;24.73;;;;;;;10.75;61.21;100924.69;5035791;28;20030;-72
2022/11/19 06:26:24;;;;;;;27.70;25.00;;;;;;;10.74;61.13;100927.66;5048014;28;20041;-72
2022/11/19 06:28:50;;;;;;;28.52;25.65;;;;;;;10.72;61.19;100918.94;5044700;28;20538;-71
2022/11/19 06:31:16;;;;;;;28.08;25.60;;;;;;;10.71;61.07;100928.94;5033089;28;20037;-72
2022/11/19 06:33:41;;;;;;;27.67;25.42;;;;;;;10.71;61.18;100928.09;5047181;28;20397;-72
2022/11/19 06:36:07;;;;;;;28.63;25.83;;;;;;;10.69;61.06;100933.75;5051877;28;20119;-71
2022/11/19 06:38:32;;;;;;;26.15;23.95;;;;;;;10.67;61.06;100929.66;5051247;28;20053;-71
2022/11/19 06:40:58;;;;;;;29.45;26.58;;;;;;;10.66;60.97;100945.03;5067896;28;20505;-77
2022/11/19 06:43:23;;;;;;;28.65;25.88;;;;;;;10.64;60.98;100940.94;5052396;28;20108;-72
2022/11/19 06:45:48;;;;;;;29.05;26.45;;;;;;;10.63;60.67;100940.09;5050467;28;20037;-72
2022/11/19 06:48:14;;;;;;;27.40;24.70;;;;;;;10.61;60.61;100948.47;5049646;28;20038;-72
2022/11/19 06:50:39;;;;;;;28.98;26.17;;;;;;;10.60;60.95;100948.69;5030757;28;20039;-71
2022/11/19 06:53:04;;;;;;;29.42;26.75;;;;;;;10.58;60.80;100953.50;5049954;28;20029;-72
2022/11/19 06:55:30;;;;;;;27.83;25.05;;;;;;;10.57;60.93;100955.38;5049121;28;20440;-72
2022/11/19 06:57:56;;;;;;;26.35;24.17;;;;;;;10.57;60.96;100959.97;5032904;28;20040;-72
2022/11/19 07:00:22;;;;;;;28.25;25.38;;;;;;;10.55;60.89;100956.69;5032655;28;20041;-72
2022/11/19 07:02:47;;;;;;;28.67;25.90;;;;;;;10.53;60.90;100969.59;5033235;28;20030;-72
2022/11/19 07:05:12;;;;;;;30.10;27.50;;;;;;;10.51;61.24;100966.34;5044867;28;20529;-71
2022/11/19 07:07:38;;;;;;;26.40;23.98;;;;;;;10.50;60.94;100964.69;5042920;28;20043;-72
2022/11/19 07:10:03;;;;;;;29.48;26.40;;;;;;;10.48;60.85;100973.03;5044123;28;20701;-72
2022/11/19 07:12:29;;;;;;;27.83;25.27;;;;;;;10.48;60.70;100977.59;5040169;28;20048;-71
2022/11/19 07:14:54;;;;;;;26.75;24.42;;;;;;;10.47;60.94;100973.25;5044562;28;20060;-71
2022/11/19 07:17:19;;;;;;;29.83;27.02;;;;;;;10.45;60.92;100980.75;5039156;28;20071;-71
2022/11/19 07:19:45;;;;;;;28.05;25.63;;;;;;;10.44;60.85;100990.75;5032356;28;20476;-71
2022/11/19 07:22:10;;;;;;;29.52;26.83;;;;;;;10.44;60.93;100998.03;5031809;28;20458;-71
2022/11/19 07:24:36;;;;;;;27.35;24.80;;;;;;;10.41;61.03;100991.22;5034318;28;20057;-71
2022/11/19 07:27:01;;;;;;;26.77;24.17;;;;;;;10.39;60.94;100996.84;5044206;28;20038;-72
2022/11/19 07:29:26;;;;;;;28.77;26.00;;;;;;;10.38;60.90;101006.03;5047231;28;20477;-71
2022/11/19 07:31:52;;;;;;;29.83;27.10;;;;;;;10.38;60.87;101007.88;5045599;28;20083;-72
2022/11/19 07:34:18;;;;;;;28.15;25.50;;;;;;;10.35;60.90;101009.16;5016973;28;20029;-71
2022/11/19 07:36:44;;;;;;;27.98;25.27;;;;;;;10.34;60.84;101002.13;5039554;28;20087;-71
2022/11/19 07:39:10;;;;;;;29.42;26.73;;;;;;;10.33;60.71;101013.16;5031491;28;20497;-71
2022/11/19 07:44:19;;;;;;;27.90;25.17;;;;;;;10.30;60.92;101010.94;5043126;28;20041;-71
2022/11/19 07:46:44;;;;;;;28.75;26.13;;;;;;;10.27;60.83;101014.91;5046146;28;20036;-72
2022/11/19 07:49:10;;;;;;;29.63;26.65;;;;;;;10.26;60.82;101015.97;5049187;28;20457;-71
2022/11/19 07:51:36;;;;;;;29.02;26.40;;;;;;;10.26;60.79;101018.66;5051074;28;20048;-72
2022/11/19 07:54:01;;;;;;;29.25;26.40;;;;;;;10.24;60.69;101020.78;5051800;28;20044;-72
2022/11/19 07:56:26;;;;;;;31.77;28.63;;;;;;;10.23;60.67;101021.84;5045489;28;20104;-71
2022/11/19 07:58:52;;;;;;;28.65;25.77;;;;;;;10.21;60.64;101010.44;5032114;28;20168;-71
2022/11/19 08:01:20;;;;;;;28.77;26.05;;;;;;;10.20;60.85;101019.56;5020836;28;20484;-72
2022/11/19 08:03:47;;;;;;;28.75;26.08;;;;;;;10.19;60.81;101020.66;5046117;28;20040;-71
2022/11/19 08:06:14;;;;;;;28.13;25.25;;;;;;;10.17;60.69;101015.47;5049606;28;20033;-72
2022/11/19 08:08:40;;;;;;;29.95;26.95;;;;;;;10.17;60.78;101022.75;5039954;28;20500;-72
2022/11/19 08:11:07;;;;;;;30.40;27.27;;;;;;;10.16;60.75;101031.91;5031920;28;20087;-72
2022/11/19 08:13:33;;;;;;;28.13;25.35;;;;;;;10.13;60.44;101033.22;5045404;28;20477;-72
2022/11/19 08:16:00;;;;;;;29.08;26.30;;;;;;;10.12;60.80;101030.72;5050910;28;20036;-72
2022/11/19 08:18:26;;;;;;;30.85;27.67;;;;;;;10.12;60.58;101036.13;5042833;28;20022;-71
2022/11/19 08:20:51;;;;;;;28.77;26.05;;;;;;;10.10;60.72;101035.53;5041894;28;20037;-72
2022/11/19 08:23:17;;;;;;;29.83;26.63;;;;;;;10.09;60.95;101042.00;5045958;28;20095;-72
2022/11/19 08:25:43;;;;;;;27.42;24.45;;;;;;;10.07;60.42;101039.50;5042952;28;20029;-72
2022/11/19 08:28:10;;;;;;;29.48;26.67;;;;;;;10.05;60.60;101044.31;5050301;28;20040;-72
2022/11/19 08:30:35;;;;;;;27.77;25.02;;;;;;;10.05;60.49;101047.00;5052368;28;20044;-72
2022/11/19 08:33:00;;;;;;;28.40;25.50;;;;;;;10.04;60.55;101047.25;5069877;28;20025;-71
2022/11/19 08:35:26;;;;;;;28.98;26.17;;;;;;;10.02;60.74;101047.47;5053240;28;20040;-72
2022/11/19 08:37:52;;;;;;;29.00;26.30;;;;;;;10.02;60.72;101052.88;5041647;28;20091;-73
2022/11/19 08:40:17;;;;;;;29.67;26.42;;;;;;;10.00;60.64;101046.88;5036762;28;20112;-71
2022/11/19 08:43:01;;;;;;;29.20;26.45;;;;;;;10.00;60.80;101054.16;5044776;28;20041;-73
2022/11/19 08:45:28;;;;;;;29.58;26.45;;;;;;;9.98;60.46;101059.81;5044154;28;20065;-71
2022/11/19 08:47:55;;;;;;;28.30;25.33;;;;;;;9.95;60.39;101055.69;5044004;28;20033;-70
2022/11/19 08:50:20;;;;;;;30.55;27.17;;;;;;;9.96;60.69;101056.53;5045295;28;20041;-70
2022/11/19 08:52:52;;;;;;;28.25;25.30;;;;;;;9.94;60.64;101066.72;5034817;28;20112;-72
2022/11/19 08:55:17;;;;;;;29.02;25.98;;;;;;;9.93;60.46;101071.28;5047394;28;20036;-71
2022/11/19 08:57:43;;;;;;;28.42;25.52;;;;;;;9.92;60.57;101075.03;5048147;28;20033;-72
2022/11/19 09:00:09;;;;;;;29.85;26.88;;;;;;;9.91;60.47;101068.00;5054572;28;20082;-72
2022/11/19 09:02:34;;;;;;;28.50;25.73;;;;;;;9.90;60.75;101076.31;5036324;28;20057;-72
2022/11/19 09:04:59;;;;;;;29.17;26.05;;;;;;;9.88;60.57;101073.03;5042622;28;20049;-72
2022/11/19 09:07:25;;;;;;;29.00;26.10;;;;;;;9.88;60.53;101079.25;5052547;28;20083;-72
2022/11/19 09:09:50;;;;;;;28.83;25.63;;;;;;;9.86;60.61;101081.34;5042426;28;20036;-72
2022/11/19 09:12:16;;;;;;;28.80;25.90;;;;;;;9.87;60.68;101092.97;5054438;28;20461;-72
2022/11/19 09:14:41;;;;;;;27.52;24.55;;;;;;;9.85;60.60;101089.66;5052906;28;20487;-72
2022/11/19 09:17:06;;;;;;;26.95;24.25;;;;;;;9.84;60.60;101088.84;5054015;28;20036;-72
2022/11/19 09:19:32;;;;;;;32.53;26.75;;;;;;;9.83;60.72;101089.09;5035982;28;20485;-72
2022/11/19 09:21:57;;;;;;;28.42;25.52;;;;;;;9.82;60.37;101099.03;5047047;28;20038;-72
2022/11/19 09:24:23;;;;;;;28.52;25.73;;;;;;;9.81;60.45;101085.81;5034289;28;20045;-71
2022/11/19 09:26:48;;;;;;;28.13;25.13;;;;;;;9.80;60.52;101100.31;5034130;28;20496;-72
2022/11/19 09:29:14;;;;;;;28.55;25.45;;;;;;;9.79;60.39;101104.91;5043698;28;20033;-71
2022/11/19 09:31:39;;;;;;;29.92;26.92;;;;;;;9.78;60.56;101105.13;5034225;28;20509;-71
2022/11/19 09:34:04;;;;;;;29.67;25.13;;;;;;;9.76;60.67;101091.88;5044310;28;20499;-72
2022/11/19 09:36:30;;;;;;;30.58;27.50;;;;;;;9.75;60.53;101101.84;5041066;28;20056;-70
2022/11/19 09:38:56;;;;;;;30.15;26.98;;;;;;;9.73;60.68;101105.81;5045635;28;20063;-71
2022/11/19 09:42:00;;;;;;;29.23;25.45;;;;;;;9.72;60.58;101104.16;5048197;28;20017;-72
2022/11/19 09:44:28;;;;;;;28.15;25.27;;;;;;;9.69;60.38;101108.16;5040731;28;20544;-69
2022/11/19 09:47:05;;;;;;;28.20;25.17;;;;;;;9.67;60.34;101107.53;5044099;28;20032;-71
2022/11/19 09:49:41;;;;;;;30.50;27.23;;;;;;;9.66;60.58;101116.69;5049865;28;20047;-70
2022/11/19 09:52:12;;;;;;;28.70;25.58;;;;;;;9.66;60.46;101113.19;5036602;28;20033;-70
2022/11/19 09:54:45;;;;;;;34.58;27.17;;;;;;;9.65;60.46;101112.38;5040599;28;20099;-70
2022/11/19 09:57:17;;;;;;;30.63;27.20;;;;;;;9.64;60.29;101116.09;5032026;28;20037;-74
2022/11/19 09:59:42;;;;;;;28.42;25.15;;;;;;;9.63;60.80;101114.47;5049113;28;20036;-71
2022/11/19 10:02:18;;;;;;;30.98;26.73;;;;;;;9.63;60.50;101116.34;5048463;28;20037;-70
2022/11/19 10:04:45;;;;;;;30.88;27.40;;;;;;;9.62;60.58;101120.88;5049378;28;20029;-71
2022/11/19 10:07:39;;;;;;;29.00;25.45;;;;;;;9.61;60.54;101121.13;5050560;28;20131;-71
2022/11/19 10:10:23;;;;;;;27.27;24.58;;;;;;;9.59;60.59;101120.53;5045690;28;20055;-71
2022/11/19 10:13:17;;;;;;;27.67;24.55;;;;;;;9.58;60.37;101127.81;5053893;28;20047;-71
2022/11/19 10:15:52;;;;;;;31.17;26.02;;;;;;;9.56;60.43;101131.78;5058962;28;20457;-71
2022/11/19 10:18:23;;;;;;;31.17;27.27;;;;;;;9.56;60.68;101126.38;5056457;28;20036;-71
2022/11/19 10:20:51;;;;;;;29.10;25.60;;;;;;;9.55;60.50;101136.34;5062825;28;20032;-72
2022/11/19 10:23:29;;;;;;;31.20;26.30;;;;;;;9.53;60.59;101138.44;5060893;28;20301;-71
2022/11/19 10:26:01;;;;;;;27.25;24.33;;;;;;;9.53;60.68;101146.53;5046609;28;20025;-70
2022/11/19 10:28:30;;;;;;;28.75;25.90;;;;;;;9.52;60.39;101143.03;5048733;28;20026;-70
2022/11/19 10:31:04;;;;;;;;;;;;;;;9.51;60.45;101145.94;5052161;28;20040;-71
2022/11/19 10:33:36;;;;;;;26.42;23.83;;;;;;;9.50;60.45;101150.50;5047070;28;19909;-72
2022/11/19 10:36:21;;;;;;;28.15;25.27;;;;;;;9.49;60.24;101140.75;5049190;28;20036;-71
2022/11/19 10:38:51;;;;;;;28.60;25.77;;;;;;;9.48;60.38;101147.22;5045345;28;20068;-71
2022/11/19 10:41:29;;;;;;;30.70;25.33;;;;;;;9.48;60.40;101146.38;5037605;28;20108;-72
2022/11/19 10:44:00;;;;;;;28.65;25.75;;;;;;;9.48;60.57;101154.47;5041755;28;20037;-72
2022/11/19 10:46:27;;;;;;;27.95;23.80;;;;;;;9.47;60.35;101155.50;5032041;28;20537;-71
2022/11/19 10:48:56;;;;;;;26.70;23.98;;;;;;;9.46;60.59;101162.78;5042680;28;20029;-72
2022/11/19 10:51:33;;;;;;;26.83;24.35;;;;;;;9.46;60.38;101156.56;5031337;28;20040;-70
2022/11/19 10:54:02;;;;;;;29.88;25.92;;;;;;;9.45;60.47;101153.06;5050563;28;20107;-71
2022/11/19 10:56:36;;;;;;;28.63;24.70;;;;;;;9.45;60.37;101147.66;5044906;28;20033;-71
2022/11/19 10:59:11;;;;;;;26.80;24.02;;;;;;;9.44;60.31;101151.41;5045037;28;20065;-71
2022/11/19 11:01:41;;;;;;;28.40;25.33;;;;;;;9.44;60.46;101162.19;5041471;28;20120;-70
2022/11/19 11:04:18;;;;;;;31.42;25.65;;;;;;;9.44;60.48;101155.97;5055071;28;20469;-70
2022/11/19 11:06:56;;;;;;;31.10;26.63;;;;;;;9.42;60.24;101148.09;5031089;28;20106;-70
2022/11/19 11:09:39;;;;;;;28.67;24.23;;;;;;;9.41;60.45;101149.16;5030917;28;20151;-70
2022/11/19 11:15:20;;;;;;;27.35;24.83;;;;;;;9.37;60.29;101142.56;5049647;28;20087;-76
2022/11/19 11:17:47;;;;;;;28.42;25.40;;;;;;;9.35;60.45;101136.59;5049495;28;20061;-76
2022/11/19 11:20:12;;;;;;;25.58;22.92;;;;;;;9.36;60.59;101138.22;5048232;28;20100;-71
2022/11/19 11:22:38;;;;;;;29.05;24.05;;;;;;;9.35;60.30;101131.19;5039044;28;20025;-71
2022/11/19 11:25:18;;;;;;;27.58;24.30;;;;;;;9.35;60.26;101135.72;5048915;28;20432;-71
2022/11/19 11:27:44;;;;;;;28.33;24.77;;;;;;;9.34;60.26;101132.22;5046776;28;20075;-72
2022/11/19 11:30:12;;;;;;;27.65;23.45;;;;;;;9.34;60.40;101134.09;5038287;28;20034;-71
2022/11/19 11:32:39;;;;;;;29.55;25.10;;;;;;;9.32;60.29;101131.63;5034521;28;20403;-71
2022/11/19 11:35:25;;;;;;;28.05;25.35;;;;;;;9.31;60.18;101135.38;5050591;28;20040;-72